createdAt,value
2019-01-30T00:01:09.690Z,108.10
2019-01-30T00:03:40.774Z,105.10
2019-01-30T00:06:11.882Z,97.80
2019-01-30T00:08:42.987Z,102.20
2019-01-30T00:11:14.058Z,95.03
2019-01-30T00:13:45.163Z,98.53
2019-01-30T00:16:17.345Z,105.90
2019-01-30T00:18:48.526Z,106.50
2019-01-30T00:21:19.705Z,109.43
2019-01-30T00:23:50.803Z,110.00
2019-01-30T00:26:22.014Z,104.93
2019-01-30T00:28:53.120Z,99.23
2019-01-30T00:31:24.256Z,98.57
2019-01-30T00:33:55.296Z,94.33
2019-01-30T00:36:26.432Z,97.97
2019-01-30T00:38:57.533Z,95.03
2019-01-30T00:41:28.670Z,95.87
2019-01-30T00:43:59.754Z,93.17
2019-01-30T00:46:30.959Z,77.03
2019-01-30T00:49:02.109Z,87.17
2019-01-30T00:51:37.091Z,82.20
2019-01-30T00:54:18.742Z,99.17
2019-01-30T00:56:54.982Z,97.90
2019-01-30T00:59:26.087Z,96.13
2019-01-30T01:01:57.186Z,92.33
2019-01-30T01:04:28.400Z,95.17
2019-01-30T01:06:59.657Z,100.00
2019-01-30T01:09:30.764Z,105.60
2019-01-30T01:12:01.990Z,105.03
2019-01-30T01:14:34.127Z,101.57
2019-01-30T01:17:05.690Z,94.03
2019-01-30T01:19:36.768Z,101.30
2019-01-30T01:22:07.869Z,90.87
2019-01-30T01:24:39.003Z,94.60
2019-01-30T01:27:10.059Z,98.07
2019-01-30T01:29:41.305Z,104.67
2019-01-30T01:32:12.398Z,97.03
2019-01-30T01:34:43.460Z,106.30
2019-01-30T01:37:14.568Z,93.47
2019-01-30T01:39:45.670Z,94.63
2019-01-30T01:42:16.857Z,85.83
2019-01-30T01:44:48.012Z,85.00
2019-01-30T01:47:19.155Z,80.97
2019-01-30T01:49:50.354Z,96.37
2019-01-30T01:52:21.654Z,93.20
2019-01-30T01:54:52.744Z,98.40
2019-01-30T01:57:23.839Z,80.13
2019-01-30T01:59:54.956Z,84.50
2019-01-30T02:02:26.067Z,88.27
2019-01-30T02:04:57.280Z,83.53
2019-01-30T02:07:28.418Z,74.00
2019-01-30T02:09:59.520Z,77.40
2019-01-30T02:12:30.597Z,86.63
2019-01-30T02:15:01.696Z,77.10
2019-01-30T02:17:32.767Z,76.43
2019-01-30T02:20:04.737Z,71.20
2019-01-30T02:22:35.802Z,77.83
2019-01-30T02:25:08.506Z,76.53
2019-01-30T02:27:39.677Z,87.00
2019-01-30T02:30:14.515Z,90.53
2019-01-30T02:32:45.674Z,75.03
2019-01-30T02:35:16.826Z,80.93
2019-01-30T02:37:47.889Z,79.63
2019-01-30T02:40:19.785Z,76.27
2019-01-30T02:42:50.862Z,76.13
2019-01-30T02:45:23.763Z,83.70
2019-01-30T02:47:55.843Z,89.43
2019-01-30T02:50:26.863Z,90.10
2019-01-30T02:52:57.945Z,99.27
2019-01-30T02:55:28.979Z,93.87
2019-01-30T03:04:24.197Z,83.53
2019-01-30T03:06:55.236Z,92.53
2019-01-30T03:09:26.324Z,88.03
2019-01-30T03:11:57.406Z,96.50
2019-01-30T03:14:28.493Z,84.27
2019-01-30T03:16:59.530Z,94.93
2019-01-30T03:19:30.572Z,90.27
2019-01-30T03:22:01.741Z,92.23
2019-01-30T03:24:32.848Z,91.27
2019-01-30T03:27:03.969Z,101.10
2019-01-30T03:29:35.019Z,96.07
2019-01-30T03:32:06.226Z,95.97
2019-01-30T03:34:37.279Z,101.77
2019-01-30T03:37:08.470Z,99.57
2019-01-30T03:39:39.508Z,91.03
2019-01-30T03:42:10.678Z,110.23
2019-01-30T03:44:41.697Z,103.10
2019-01-30T03:47:12.763Z,95.83
2019-01-30T03:49:44.033Z,97.80
2019-01-30T03:52:15.147Z,100.80
2019-01-30T03:54:46.374Z,103.30
2019-01-30T03:57:17.414Z,99.63
2019-01-30T03:59:48.487Z,112.63
2019-01-30T04:02:19.528Z,107.40
2019-01-30T04:04:50.616Z,96.30
2019-01-30T04:07:21.661Z,101.90
2019-01-30T04:09:52.715Z,106.30
2019-01-30T04:12:23.791Z,105.53
2019-01-30T04:14:54.841Z,94.73
2019-01-30T04:17:25.989Z,99.23
2019-01-30T04:19:57.025Z,95.10
2019-01-30T04:22:28.116Z,104.27
2019-01-30T04:24:59.188Z,104.23
2019-01-30T04:27:30.258Z,96.67
2019-01-30T04:30:01.366Z,108.00
2019-01-30T04:32:32.515Z,105.33
2019-01-30T04:35:03.773Z,92.63
2019-01-30T04:37:34.836Z,97.23
2019-01-30T04:40:07.804Z,93.07
2019-01-30T04:42:38.892Z,100.70
2019-01-30T04:45:12.312Z,91.23
2019-01-30T04:47:43.367Z,97.13
2019-01-30T04:50:14.629Z,101.30
2019-01-30T04:52:45.684Z,96.43
2019-01-30T04:55:17.530Z,103.40
2019-01-30T04:57:48.586Z,98.60
2019-01-30T05:00:24.307Z,103.33
2019-01-30T05:02:55.367Z,106.67
2019-01-30T05:05:26.437Z,104.00
2019-01-30T05:07:57.495Z,96.80
2019-01-30T05:10:28.612Z,95.13
2019-01-30T05:12:59.656Z,101.50
2019-01-30T05:15:30.748Z,97.83
2019-01-30T05:18:01.787Z,99.53
2019-01-30T05:20:32.883Z,97.80
2019-01-30T05:23:03.935Z,94.30
2019-01-30T05:25:35.058Z,99.27
2019-01-30T05:28:07.189Z,109.07
2019-01-30T05:30:38.416Z,106.97
2019-01-30T05:33:09.471Z,99.23
2019-01-30T05:35:40.551Z,107.93
2019-01-30T05:38:11.606Z,105.17
2019-01-30T05:40:42.708Z,105.30
2019-01-30T05:43:13.788Z,102.87
2019-01-30T05:45:44.906Z,102.47
2019-01-30T05:48:15.967Z,92.43
2019-01-30T05:50:47.066Z,95.73
2019-01-30T05:53:18.139Z,93.77
2019-01-30T05:55:49.303Z,96.93
2019-01-30T05:58:20.330Z,92.07
2019-01-30T06:00:51.446Z,86.30
2019-01-30T06:03:22.500Z,89.43
2019-01-30T06:05:53.622Z,81.30
2019-01-30T06:08:24.703Z,87.00
2019-01-30T06:10:55.804Z,88.27
2019-01-30T06:13:26.937Z,79.60
2019-01-30T06:15:57.987Z,80.33
2019-01-30T06:18:29.138Z,85.20
2019-01-30T06:21:00.266Z,87.47
2019-01-30T06:23:32.449Z,80.87
2019-01-30T06:26:03.669Z,74.17
2019-01-30T06:28:34.828Z,79.10
2019-01-30T06:31:05.970Z,71.53
2019-01-30T06:33:37.290Z,80.17
2019-01-30T06:36:08.427Z,82.13
2019-01-30T06:38:39.567Z,87.13
2019-01-30T06:41:10.726Z,90.93
2019-01-30T06:43:41.828Z,93.67
2019-01-30T06:46:12.990Z,93.33
2019-01-30T06:48:44.156Z,87.33
2019-01-30T06:51:15.202Z,83.43
2019-01-30T06:53:46.323Z,81.30
2019-01-30T06:56:17.418Z,79.60
2019-01-30T06:58:48.532Z,78.07
2019-01-30T07:01:19.751Z,85.20
2019-01-30T07:03:50.938Z,83.73
2019-01-30T07:06:21.993Z,86.10
2019-01-30T07:08:53.172Z,89.87
2019-01-30T07:11:24.215Z,95.93
2019-01-30T07:13:55.283Z,77.50
2019-01-30T07:16:26.442Z,73.50
2019-01-30T07:18:57.473Z,81.87
2019-01-30T07:21:28.531Z,82.27
2019-01-30T07:23:59.565Z,79.07
2019-01-30T07:26:30.628Z,85.73
2019-01-30T07:29:01.707Z,86.90
2019-01-30T07:31:32.925Z,88.70
2019-01-30T07:34:04.068Z,77.57
2019-01-30T07:36:35.119Z,85.93
2019-01-30T07:39:09.592Z,78.90
2019-01-30T07:41:40.651Z,84.77
2019-01-30T07:44:11.776Z,83.17
2019-01-30T07:46:42.909Z,82.87
2019-01-30T07:49:14.084Z,76.60
2019-01-30T07:51:45.175Z,84.17
2019-01-30T07:54:16.366Z,79.93
2019-01-30T07:56:47.611Z,84.67
2019-01-30T07:59:18.925Z,80.27
2019-01-30T08:01:50.073Z,74.67
2019-01-30T08:04:21.275Z,60.73
2019-01-30T08:06:52.450Z,61.53
2019-01-30T08:09:23.625Z,68.97
2019-01-30T08:11:54.807Z,62.07
2019-01-30T08:17:15.147Z,56.73
2019-01-30T08:19:46.543Z,60.03
2019-01-30T08:22:17.901Z,56.63
2019-01-30T08:24:49.213Z,52.97
2019-01-30T08:27:20.764Z,54.10
2019-01-30T08:29:52.802Z,50.37
2019-01-30T08:32:24.633Z,56.23
2019-01-30T08:34:55.873Z,55.43
2019-01-30T08:37:27.301Z,50.73
2019-01-30T08:39:58.518Z,53.13
2019-01-30T08:42:29.685Z,52.13
2019-01-30T08:45:01.142Z,58.23
2019-01-30T08:47:32.381Z,58.47
2019-01-30T08:50:04.663Z,60.10
2019-01-30T08:52:35.767Z,54.33
2019-01-30T08:55:07.404Z,55.27
2019-01-30T08:57:39.234Z,48.67
2019-01-30T09:00:13.901Z,44.53
2019-01-30T09:02:45.331Z,47.43
2019-01-30T09:05:17.160Z,40.67
2019-01-30T09:07:48.355Z,34.23
2019-01-30T09:10:21.107Z,34.97
2019-01-30T09:12:52.287Z,35.87
2019-01-30T09:15:24.527Z,38.70
2019-01-30T09:17:55.722Z,37.97
2019-01-30T09:20:26.924Z,34.40
2019-01-30T09:22:57.970Z,33.70
2019-01-30T09:25:30.487Z,34.40
2019-01-30T09:28:02.361Z,32.40
2019-01-30T09:30:38.417Z,33.80
2019-01-30T09:33:11.357Z,25.10
2019-01-30T09:35:42.516Z,31.57
2019-01-30T09:38:13.820Z,25.10
2019-01-30T09:40:45.014Z,26.67
2019-01-30T09:43:16.254Z,24.37
2019-01-30T09:45:47.304Z,29.83
2019-01-30T09:48:18.452Z,27.00
2019-01-30T09:50:49.683Z,26.13
2019-01-30T09:53:20.870Z,32.57
2019-01-30T09:55:52.003Z,30.30
2019-01-30T09:58:24.001Z,27.00
2019-01-30T10:00:55.322Z,32.27
2019-01-30T10:03:35.703Z,26.77
2019-01-30T10:05:59.413Z,30.23
2019-01-30T10:08:30.623Z,30.27
2019-01-30T10:11:01.913Z,24.50
2019-01-30T10:13:33.116Z,27.77
2019-01-30T10:16:04.589Z,22.27
2019-01-30T10:18:35.734Z,29.30
2019-01-30T10:21:06.971Z,26.27
2019-01-30T10:23:38.254Z,23.00
2019-01-30T10:26:09.860Z,28.43
2019-01-30T10:28:40.942Z,23.60
2019-01-30T10:31:12.226Z,27.03
2019-01-30T10:33:46.480Z,26.07
2019-01-30T10:36:16.062Z,33.37
2019-01-30T10:38:47.210Z,27.67
2019-01-30T10:41:18.428Z,35.37
2019-01-30T10:43:49.526Z,31.43
2019-01-30T10:46:20.722Z,32.53
2019-01-30T10:48:51.771Z,31.13
2019-01-30T10:51:22.905Z,33.10
2019-01-30T10:53:54.069Z,32.27
2019-01-30T10:56:25.239Z,30.33
2019-01-30T10:58:56.404Z,33.53
2019-01-30T11:01:27.544Z,36.47
2019-01-30T11:03:58.634Z,31.53
2019-01-30T11:06:29.735Z,37.20
2019-01-30T11:09:00.843Z,36.67
2019-01-30T11:11:33.732Z,41.07
2019-01-30T11:14:04.934Z,34.60
2019-01-30T11:16:36.093Z,32.97
2019-01-30T11:19:07.365Z,34.70
2019-01-30T11:21:38.454Z,34.97
2019-01-30T11:24:09.562Z,34.57
2019-01-30T11:26:40.698Z,36.03
2019-01-30T11:29:11.905Z,37.87
2019-01-30T11:31:42.985Z,37.27
2019-01-30T11:34:14.111Z,33.07
2019-01-30T11:36:45.220Z,39.97
2019-01-30T11:39:16.274Z,36.17
2019-01-30T11:41:47.421Z,32.77
2019-01-30T11:44:18.513Z,36.73
2019-01-30T11:46:49.865Z,35.70
2019-01-30T11:49:21.016Z,33.80
2019-01-30T11:51:52.199Z,36.40
2019-01-30T11:54:23.364Z,36.17
2019-01-30T11:56:54.470Z,41.37
2019-01-30T11:59:25.621Z,34.73
2019-01-30T12:01:56.725Z,36.17
2019-01-30T12:04:27.804Z,38.37
2019-01-30T12:06:58.965Z,36.63
2019-01-30T12:09:30.018Z,36.63
2019-01-30T12:12:02.251Z,30.80
2019-01-30T12:14:33.332Z,38.43
2019-01-30T12:17:04.583Z,40.57
2019-01-30T12:19:35.726Z,31.87
2019-01-30T12:22:07.042Z,35.43
2019-01-30T12:24:38.283Z,37.07
2019-01-30T12:27:09.444Z,36.00
2019-01-30T12:29:40.630Z,35.50
2019-01-30T12:32:11.861Z,32.87
2019-01-30T12:34:42.928Z,38.53
2019-01-30T12:37:14.085Z,31.63
2019-01-30T12:39:45.224Z,33.97
2019-01-30T12:42:16.496Z,36.70
2019-01-30T12:44:47.837Z,33.70
2019-01-30T12:47:19.963Z,33.90
2019-01-30T12:49:51.531Z,32.90
2019-01-30T12:52:22.732Z,31.60
2019-01-30T12:54:53.954Z,37.53
2019-01-30T12:57:25.062Z,31.57
2019-01-30T12:59:56.241Z,33.63
2019-01-30T13:02:27.368Z,31.13
2019-01-30T13:04:58.461Z,32.07
2019-01-30T13:07:29.565Z,33.63
2019-01-30T13:10:00.666Z,34.83
2019-01-30T13:12:31.734Z,33.17
2019-01-30T13:15:02.838Z,32.83
2019-01-30T13:17:33.941Z,36.33
2019-01-30T13:20:06.540Z,31.60
2019-01-30T13:22:37.630Z,35.13
2019-01-30T13:25:08.995Z,32.53
2019-01-30T13:27:40.269Z,34.13
2019-01-30T13:30:15.453Z,34.53
2019-01-30T13:32:46.687Z,32.93
2019-01-30T13:35:17.871Z,41.27
2019-01-30T13:37:49.158Z,31.67
2019-01-30T13:40:28.706Z,29.97
2019-01-30T13:42:59.935Z,32.57
2019-01-30T13:45:31.917Z,31.63
2019-01-30T13:48:05.387Z,45.97
2019-01-30T13:50:36.542Z,33.33
2019-01-30T13:53:08.348Z,37.17
2019-01-30T13:55:39.610Z,35.00
2019-01-30T13:58:11.326Z,37.80
2019-01-30T14:00:42.571Z,38.57
2019-01-30T14:03:13.687Z,37.90
2019-01-30T14:05:45.278Z,33.57
2019-01-30T14:08:16.953Z,34.60
2019-01-30T14:10:48.329Z,36.77
2019-01-30T14:13:20.259Z,39.60
2019-01-30T14:15:51.626Z,43.07
2019-01-30T14:18:22.859Z,39.13
2019-01-30T14:20:53.985Z,38.23
2019-01-30T14:23:25.225Z,43.57
2019-01-30T14:25:56.419Z,40.50
2019-01-30T14:28:27.811Z,44.20
2019-01-30T14:31:00.911Z,40.27
2019-01-30T14:33:32.213Z,38.67
2019-01-30T14:36:03.436Z,41.20
2019-01-30T14:38:34.637Z,44.67
2019-01-30T14:41:05.815Z,41.83
2019-01-30T14:43:36.990Z,40.00
2019-01-30T14:46:08.110Z,48.43
2019-01-30T14:48:39.397Z,43.67
2019-01-30T14:51:10.556Z,38.90
2019-01-30T14:53:42.367Z,42.03
2019-01-30T14:56:13.711Z,46.90
2019-01-30T14:58:44.919Z,43.20
2019-01-30T15:01:16.086Z,44.47
2019-01-30T15:03:47.592Z,46.57
2019-01-30T15:06:18.758Z,47.10
2019-01-30T15:08:50.236Z,48.00
2019-01-30T15:11:21.592Z,49.87
2019-01-30T15:13:52.819Z,50.10
2019-01-30T15:16:24.130Z,44.53
2019-01-30T15:18:55.460Z,53.80
2019-01-30T15:21:26.708Z,51.40
2019-01-30T15:23:58.011Z,46.90
2019-01-30T15:26:29.084Z,46.97
2019-01-30T15:29:00.193Z,49.33
2019-01-30T15:31:31.282Z,58.73
2019-01-30T15:34:02.407Z,52.93
2019-01-30T15:36:33.637Z,56.00
2019-01-30T15:39:08.366Z,53.20
2019-01-30T15:41:39.608Z,54.07
2019-01-30T15:44:10.756Z,55.17
2019-01-30T15:46:41.862Z,59.47
2019-01-30T15:49:12.894Z,55.33
2019-01-30T15:51:44.007Z,65.17
2019-01-30T15:54:15.130Z,58.53
2019-01-30T15:56:47.485Z,53.40
2019-01-30T15:59:18.795Z,62.73
2019-01-30T16:01:50.458Z,66.07
2019-01-30T16:04:22.209Z,68.33
2019-01-30T16:06:53.353Z,76.67
2019-01-30T16:09:24.685Z,84.67
2019-01-30T16:11:55.950Z,100.37
2019-01-30T16:14:27.119Z,93.37
2019-01-30T16:16:58.383Z,105.53
2019-01-30T16:19:29.504Z,97.77
2019-01-30T16:22:00.740Z,111.87
2019-01-30T16:24:31.954Z,109.93
2019-01-30T16:27:03.295Z,122.07
2019-01-30T16:29:35.016Z,112.70
2019-01-30T16:32:06.255Z,115.73
2019-01-30T16:34:37.327Z,114.13
2019-01-30T16:37:08.509Z,109.33
2019-01-30T16:39:39.895Z,122.17
2019-01-30T16:42:11.324Z,111.60
2019-01-30T16:44:43.457Z,111.60
2019-01-30T16:47:15.391Z,107.27
2019-01-30T16:49:46.891Z,111.83
2019-01-30T16:52:18.013Z,122.23
2019-01-30T16:54:49.355Z,120.63
2019-01-30T16:57:20.675Z,119.97
2019-01-30T16:59:51.859Z,113.97
2019-01-30T17:02:23.139Z,116.77
2019-01-30T17:04:54.479Z,113.97
2019-01-30T17:07:25.717Z,105.73
2019-01-30T17:09:57.029Z,106.90
2019-01-30T17:12:28.150Z,101.17
2019-01-30T17:14:59.317Z,97.07
2019-01-30T17:17:30.457Z,102.03
2019-01-30T17:20:01.716Z,96.70
2019-01-30T17:22:33.151Z,100.30
2019-01-30T17:25:05.400Z,99.23
2019-01-30T17:27:36.636Z,95.40
2019-01-30T17:30:11.848Z,103.97
2019-01-30T17:32:42.985Z,105.33
2019-01-30T17:35:14.815Z,101.47
2019-01-30T17:37:46.004Z,108.70
2019-01-30T17:40:19.080Z,110.87
2019-01-30T17:42:50.298Z,102.30
2019-01-30T17:45:21.661Z,107.90
2019-01-30T17:47:53.058Z,101.53
2019-01-30T17:50:25.234Z,94.43
2019-01-30T17:52:56.443Z,95.17
2019-01-30T17:55:27.536Z,101.53
2019-01-30T17:57:58.882Z,98.67
2019-01-30T18:00:51.438Z,100.60
2019-01-30T18:03:22.709Z,104.50
2019-01-30T18:05:53.900Z,110.03
2019-01-30T18:08:25.044Z,101.67
2019-01-30T18:10:56.120Z,109.07
2019-01-30T18:13:27.331Z,110.00
2019-01-30T18:15:58.526Z,106.67
2019-01-30T18:18:29.667Z,115.60
2019-01-30T18:21:01.076Z,112.43
2019-01-30T18:24:17.647Z,105.20
2019-01-30T18:26:49.257Z,110.80
2019-01-30T18:29:26.153Z,107.90
2019-01-30T18:31:58.659Z,113.60
2019-01-30T18:34:29.877Z,116.17
2019-01-30T18:37:01.289Z,117.50
2019-01-30T18:39:42.714Z,115.77
2019-01-30T18:42:14.060Z,122.43
2019-01-30T18:44:45.347Z,126.37
2019-01-30T18:47:23.861Z,131.53
2019-01-30T18:49:55.934Z,123.37
2019-01-30T18:52:27.203Z,137.23
2019-01-30T18:54:59.325Z,131.87
2019-01-30T18:57:43.576Z,129.27
2019-01-30T19:00:28.007Z,126.03
2019-01-30T19:03:03.213Z,120.27
2019-01-30T19:05:35.802Z,122.60
2019-01-30T19:08:08.844Z,124.83
2019-01-30T19:10:40.880Z,121.90
2019-01-30T19:13:15.292Z,125.77
2019-01-30T19:15:47.292Z,132.30
2019-01-30T19:18:37.367Z,128.50
2019-01-30T19:21:08.585Z,123.17
2019-01-30T19:23:39.832Z,130.23
2019-01-30T19:26:11.150Z,129.93
2019-01-30T19:28:42.997Z,135.37
2019-01-30T19:31:14.255Z,127.03
2019-01-30T19:33:45.412Z,130.07
2019-01-30T19:36:16.546Z,124.43
2019-01-30T19:38:48.176Z,124.93
2019-01-30T19:41:20.088Z,120.30
2019-01-30T19:43:51.356Z,127.67
2019-01-30T19:46:33.901Z,117.27
2019-01-30T19:49:05.105Z,125.37
2019-01-30T19:51:36.310Z,118.77
2019-01-30T19:54:07.449Z,128.60
2019-01-30T19:56:38.707Z,123.93
2019-01-30T19:59:17.420Z,120.40
2019-01-30T20:01:42.901Z,120.33
2019-01-30T20:04:14.207Z,122.03
2019-01-30T20:06:45.889Z,131.90
2019-01-30T20:09:18.523Z,139.70
2019-01-30T20:11:49.939Z,110.10
2019-01-30T20:14:21.565Z,116.23
2019-01-30T20:16:52.807Z,130.40
2019-01-30T20:19:24.174Z,129.97
2019-01-30T20:21:55.427Z,123.87
2019-01-30T20:24:27.703Z,126.90
2019-01-30T20:26:58.958Z,121.40
2019-01-30T20:29:30.107Z,125.80
2019-01-30T20:32:01.380Z,132.47
2019-01-30T20:34:32.840Z,117.53
2019-01-30T20:37:04.002Z,123.27
2019-01-30T20:39:35.160Z,135.30
2019-01-30T20:42:06.874Z,126.30
2019-01-30T20:44:38.086Z,125.60
2019-01-30T20:47:10.699Z,140.40
2019-01-30T20:49:41.997Z,126.07
2019-01-30T20:52:13.239Z,118.63
2019-01-30T20:54:44.329Z,123.40
2019-01-30T20:57:15.772Z,129.83
2019-01-30T20:59:46.944Z,129.60
2019-01-30T21:02:18.136Z,124.10
2019-01-30T21:04:49.243Z,133.90
2019-01-30T21:07:20.440Z,136.20
2019-01-30T21:09:51.629Z,111.13
2019-01-30T21:12:22.739Z,128.10
2019-01-30T21:14:54.044Z,133.23
2019-01-30T21:17:25.285Z,117.07
2019-01-30T21:19:56.458Z,138.80
2019-01-30T21:22:28.196Z,134.63
2019-01-30T21:24:59.313Z,134.60
2019-01-30T21:27:30.455Z,135.03
2019-01-30T21:30:01.681Z,144.23
2019-01-30T21:32:33.900Z,191.27
2019-01-30T21:35:05.900Z,182.47
2019-01-30T21:37:48.357Z,162.17
2019-01-30T21:40:12.092Z,149.10
2019-01-30T21:42:43.237Z,144.37
2019-01-30T21:45:17.133Z,146.17
2019-01-30T21:47:48.436Z,145.33
2019-01-30T21:50:19.819Z,136.03
2019-01-30T21:52:51.021Z,135.87
2019-01-30T21:55:23.873Z,131.10
2019-01-30T21:57:55.085Z,127.33
2019-01-30T22:00:28.578Z,138.33
2019-01-30T22:03:00.007Z,133.10
2019-01-30T22:05:31.211Z,128.93
2019-01-30T22:08:02.341Z,151.03
2019-01-30T22:10:34.605Z,143.20
2019-01-30T22:13:06.241Z,128.00
2019-01-30T22:15:37.597Z,130.17
2019-01-30T22:18:09.003Z,155.87
2019-01-30T22:20:40.126Z,140.10
2019-01-30T22:23:11.569Z,128.93
2019-01-30T22:25:42.812Z,136.97
2019-01-30T22:28:14.534Z,130.60
2019-01-30T22:30:45.743Z,131.77
2019-01-30T22:33:17.575Z,121.77
2019-01-30T22:35:49.142Z,146.50
2019-01-30T22:38:20.407Z,140.30
2019-01-30T22:40:51.832Z,134.30
2019-01-30T22:43:22.912Z,150.87
2019-01-30T22:45:54.337Z,145.53
2019-01-30T22:48:25.580Z,143.10
2019-01-30T22:50:56.759Z,159.27
2019-01-30T22:53:27.819Z,160.20
2019-01-30T22:55:59.000Z,136.60
2019-01-30T22:58:30.350Z,131.40
2019-01-30T23:01:31.107Z,154.17
2019-01-30T23:04:42.711Z,148.37
2019-01-30T23:07:53.367Z,125.87
2019-01-30T23:11:16.314Z,132.27
2019-01-30T23:14:10.319Z,149.07
2019-01-30T23:17:11.642Z,149.77
2019-01-30T23:19:54.404Z,141.77
2019-01-30T23:22:59.096Z,145.63
2019-01-30T23:25:52.047Z,153.33
2019-01-30T23:29:15.133Z,138.97
2019-01-30T23:32:32.405Z,139.20
2019-01-30T23:35:31.909Z,132.30
2019-01-30T23:38:40.285Z,129.43
2019-01-30T23:41:29.418Z,148.57
2019-01-30T23:44:56.808Z,129.40
2019-01-30T23:48:20.210Z,119.40
2019-01-30T23:51:23.599Z,145.20
2019-01-30T23:54:34.630Z,138.03
2019-01-30T23:57:26.286Z,134.33
